createdAt,value
2023-04-16T00:01:20.709Z,7.77
2023-04-16T00:03:49.605Z,5.73
2023-04-16T00:06:18.428Z,6.93
2023-04-16T00:08:47.011Z,8.37
2023-04-16T00:11:15.796Z,6.27
2023-04-16T00:13:46.523Z,8.83
2023-04-16T00:16:14.973Z,6.97
2023-04-16T00:18:45.347Z,7.33
2023-04-16T00:21:14.225Z,9.47
2023-04-16T00:23:42.766Z,7.13
2023-04-16T00:26:11.550Z,8.07
2023-04-16T00:28:43.032Z,7.73
2023-04-16T00:31:11.897Z,9.17
2023-04-16T00:33:40.382Z,7.37
2023-04-16T00:36:11.447Z,9.83
2023-04-16T00:38:39.880Z,8.57
2023-04-16T00:41:08.337Z,10.03
2023-04-16T00:43:36.986Z,10.37
2023-04-16T00:46:07.670Z,11.03
2023-04-16T00:48:37.657Z,11.83
2023-04-16T00:51:07.588Z,10.97
2023-04-16T00:53:38.201Z,8.53
2023-04-16T00:56:08.522Z,9.87
2023-04-16T00:58:37.599Z,10.20
2023-04-16T01:01:06.268Z,8.57
2023-04-16T01:03:40.773Z,8.87
2023-04-16T01:06:10.038Z,11.60
2023-04-16T01:08:40.161Z,12.17
2023-04-16T01:11:09.121Z,11.87
2023-04-16T01:13:40.045Z,8.03
2023-04-16T01:16:09.505Z,8.53
2023-04-16T01:18:38.457Z,10.23
2023-04-16T01:21:10.157Z,9.80
2023-04-16T01:23:39.411Z,8.03
2023-04-16T01:26:08.126Z,7.70
2023-04-16T01:28:37.317Z,6.83
2023-04-16T01:31:05.937Z,9.37
2023-04-16T01:33:34.659Z,8.00
2023-04-16T01:36:03.381Z,12.13
2023-04-16T01:38:33.437Z,7.80
2023-04-16T01:41:02.324Z,7.53
2023-04-16T01:43:31.187Z,6.60
2023-04-16T01:46:15.438Z,5.90
2023-04-16T01:48:44.501Z,11.10
2023-04-16T01:51:14.731Z,5.23
2023-04-16T01:53:44.950Z,7.13
2023-04-16T01:56:13.523Z,7.83
2023-04-16T01:58:42.932Z,5.53
2023-04-16T02:01:11.747Z,8.40
2023-04-16T02:03:40.890Z,11.03
2023-04-16T02:06:09.797Z,9.97
2023-04-16T02:08:39.896Z,5.87
2023-04-16T02:11:09.874Z,7.80
2023-04-16T02:13:38.770Z,11.90
2023-04-16T02:16:07.674Z,8.57
2023-04-16T02:18:36.032Z,7.70
2023-04-16T02:21:06.775Z,8.10
2023-04-16T02:23:35.345Z,7.80
2023-04-16T02:26:05.561Z,9.63
2023-04-16T02:28:35.796Z,9.23
2023-04-16T02:31:06.048Z,8.67
2023-04-16T02:33:36.257Z,6.07
2023-04-16T02:36:04.756Z,8.73
2023-04-16T02:38:33.324Z,7.80
2023-04-16T02:41:01.919Z,11.17
2023-04-16T02:43:30.587Z,7.80
2023-04-16T02:46:00.769Z,5.70
2023-04-16T02:48:29.688Z,5.00
2023-04-16T02:50:58.117Z,9.50
2023-04-16T02:53:27.021Z,8.17
2023-04-16T02:55:56.706Z,7.90
2023-04-16T02:58:26.437Z,7.53
2023-04-16T03:00:55.914Z,11.20
2023-04-16T03:03:26.042Z,12.87
2023-04-16T03:05:54.518Z,9.60
2023-04-16T03:08:23.534Z,6.97
2023-04-16T03:10:52.163Z,10.00
2023-04-16T03:13:20.557Z,9.63
2023-04-16T03:15:51.210Z,11.67
2023-04-16T03:18:20.130Z,8.73
2023-04-16T03:20:53.661Z,7.43
2023-04-16T03:23:23.192Z,9.37
2023-04-16T03:25:51.978Z,11.63
2023-04-16T03:28:20.693Z,9.07
2023-04-16T03:30:53.101Z,11.80
2023-04-16T03:33:22.957Z,10.37
2023-04-16T03:35:58.622Z,12.67
2023-04-16T03:38:27.940Z,8.73
2023-04-16T03:40:56.432Z,8.43
2023-04-16T03:43:24.988Z,8.47
2023-04-16T03:45:53.436Z,10.20
2023-04-16T03:48:22.219Z,9.50
2023-04-16T03:50:50.959Z,9.10
2023-04-16T03:53:21.135Z,7.40
2023-04-16T03:55:52.652Z,8.23
2023-04-16T03:58:21.487Z,8.87
2023-04-16T04:00:50.252Z,10.30
2023-04-16T04:03:19.218Z,9.13
2023-04-16T04:05:47.828Z,11.07
2023-04-16T04:08:16.600Z,15.73
2023-04-16T04:10:47.279Z,9.50
2023-04-16T04:13:15.868Z,11.63
2023-04-16T04:15:45.639Z,8.30
2023-04-16T04:18:14.087Z,12.70
2023-04-16T04:20:42.576Z,6.90
2023-04-16T04:23:11.058Z,7.37
2023-04-16T04:25:39.525Z,7.73
2023-04-16T04:28:10.242Z,7.57
2023-04-16T04:30:38.947Z,12.90
2023-04-16T04:33:07.356Z,12.30
2023-04-16T04:35:36.104Z,8.77
2023-04-16T04:38:05.193Z,6.67
2023-04-16T04:40:33.669Z,9.07
2023-04-16T04:43:02.170Z,11.23
2023-04-16T04:45:32.633Z,15.13
2023-04-16T04:48:01.218Z,10.23
2023-04-16T04:50:30.060Z,16.10
2023-04-16T04:52:58.666Z,10.70
2023-04-16T04:55:27.253Z,10.90
2023-04-16T04:57:56.200Z,11.50
2023-04-16T05:00:25.116Z,10.17
2023-04-16T05:02:55.271Z,10.20
2023-04-16T05:05:23.752Z,9.97
2023-04-16T05:07:52.570Z,12.53
2023-04-16T05:10:21.195Z,7.30
2023-04-16T05:12:50.305Z,11.67
2023-04-16T05:15:18.834Z,8.97
2023-04-16T05:17:47.513Z,9.60
2023-04-16T05:20:18.106Z,9.13
2023-04-16T05:22:46.629Z,12.20
2023-04-16T05:25:15.329Z,11.10
2023-04-16T05:27:43.757Z,8.80
2023-04-16T05:30:13.133Z,9.63
2023-04-16T05:32:42.386Z,10.67
2023-04-16T05:35:11.519Z,9.13
2023-04-16T05:37:41.288Z,9.87
2023-04-16T05:40:11.248Z,8.83
2023-04-16T05:42:40.063Z,8.00
2023-04-16T05:45:09.874Z,8.77
2023-04-16T05:47:38.595Z,7.90
2023-04-16T05:50:08.462Z,10.50
2023-04-16T05:52:36.943Z,12.03
2023-04-16T05:55:07.720Z,9.10
2023-04-16T05:57:36.366Z,9.20
2023-04-16T06:00:05.589Z,10.33
2023-04-16T06:02:34.368Z,10.60
2023-04-16T06:05:03.149Z,13.20
2023-04-16T06:07:31.694Z,10.23
2023-04-16T06:10:00.164Z,12.07
2023-04-16T06:12:30.091Z,10.17
2023-04-16T06:14:58.813Z,11.13
2023-04-16T06:17:27.297Z,8.27
2023-04-16T06:19:55.762Z,10.93
2023-04-16T06:22:27.427Z,11.93
2023-04-16T06:24:55.878Z,9.73
2023-04-16T06:27:24.826Z,11.90
2023-04-16T06:29:54.879Z,10.17
2023-04-16T06:32:23.649Z,11.53
2023-04-16T06:34:52.353Z,9.60
2023-04-16T06:37:21.015Z,10.03
2023-04-16T06:39:49.615Z,9.77
2023-04-16T06:42:18.206Z,8.13
2023-04-16T06:44:46.988Z,10.30
2023-04-16T06:47:17.439Z,8.87
2023-04-16T06:49:46.246Z,13.33
2023-04-16T06:52:15.070Z,10.97
2023-04-16T06:54:43.985Z,11.83
2023-04-16T06:57:15.566Z,10.87
2023-04-16T06:59:44.244Z,10.37
2023-04-16T07:02:13.002Z,7.63
2023-04-16T07:04:43.450Z,9.50
2023-04-16T07:07:13.255Z,10.00
2023-04-16T07:09:42.309Z,5.43
2023-04-16T07:12:11.978Z,8.90
2023-04-16T07:14:41.115Z,11.90
2023-04-16T07:17:11.371Z,8.70
2023-04-16T07:19:40.272Z,10.27
2023-04-16T07:22:10.343Z,10.60
2023-04-16T07:24:38.790Z,8.97
2023-04-16T07:27:07.312Z,12.33
2023-04-16T07:29:36.138Z,9.17
2023-04-16T07:32:05.176Z,13.43
2023-04-16T07:34:33.985Z,10.77
2023-04-16T07:37:03.426Z,14.70
2023-04-16T07:39:33.235Z,11.43
2023-04-16T07:42:02.465Z,7.53
2023-04-16T07:44:31.569Z,12.03
2023-04-16T07:47:00.390Z,14.13
2023-04-16T07:49:29.193Z,9.70
2023-04-16T07:51:58.532Z,11.47
2023-04-16T07:54:29.002Z,13.37
2023-04-16T07:56:59.358Z,13.50
2023-04-16T07:59:27.916Z,12.73
2023-04-16T08:01:56.735Z,9.97
2023-04-16T08:04:26.735Z,12.33
2023-04-16T08:06:55.848Z,13.13
2023-04-16T08:09:29.941Z,12.50
2023-04-16T08:12:01.542Z,12.90
2023-04-16T08:14:30.318Z,13.90
2023-04-16T08:16:59.166Z,13.43
2023-04-16T08:19:28.047Z,11.67
2023-04-16T08:21:58.232Z,15.00
2023-04-16T08:24:27.782Z,12.80
2023-04-16T08:27:02.496Z,13.17
2023-04-16T08:29:41.541Z,15.03
2023-04-16T08:32:10.290Z,13.83
2023-04-16T08:34:40.863Z,13.40
2023-04-16T08:37:09.736Z,11.77
2023-04-16T08:39:38.447Z,12.17
2023-04-16T08:42:11.755Z,15.07
2023-04-16T08:44:49.536Z,12.07
2023-04-16T08:47:18.538Z,14.87
2023-04-16T08:49:47.498Z,15.77
2023-04-16T08:52:19.870Z,14.53
2023-04-16T08:54:56.546Z,14.03
2023-04-16T08:57:28.496Z,18.27
2023-04-16T08:59:59.429Z,20.87
2023-04-16T09:02:28.843Z,15.50
2023-04-16T09:05:01.220Z,14.30
2023-04-16T09:07:31.124Z,19.07
2023-04-16T09:10:02.034Z,14.50
2023-04-16T09:12:32.367Z,16.87
2023-04-16T09:15:03.712Z,17.10
2023-04-16T09:17:32.498Z,14.93
2023-04-16T09:20:01.401Z,15.87
2023-04-16T09:22:32.203Z,18.40
2023-04-16T09:25:01.281Z,20.83
2023-04-16T09:27:31.046Z,16.90
2023-04-16T09:29:59.917Z,15.97
2023-04-16T09:32:30.716Z,16.43
2023-04-16T09:35:01.466Z,17.80
2023-04-16T09:37:32.010Z,17.87
2023-04-16T09:40:02.241Z,17.60
2023-04-16T09:42:33.770Z,15.57
2023-04-16T09:45:04.966Z,9.80
2023-04-16T09:47:44.079Z,14.40
2023-04-16T09:50:20.166Z,18.57
2023-04-16T09:52:52.094Z,14.77
2023-04-16T09:55:24.840Z,14.37
2023-04-16T09:58:01.740Z,16.67
2023-04-16T10:00:32.306Z,14.20
2023-04-16T10:03:08.802Z,14.27
2023-04-16T10:05:37.719Z,13.87
2023-04-16T10:08:15.377Z,13.67
2023-04-16T10:10:44.064Z,19.97
2023-04-16T10:13:17.864Z,15.03
2023-04-16T10:15:46.726Z,16.33
2023-04-16T10:18:18.049Z,14.40
2023-04-16T10:20:48.895Z,18.07
2023-04-16T10:23:17.620Z,20.43
2023-04-16T10:25:46.425Z,16.77
2023-04-16T10:28:16.789Z,19.00
2023-04-16T10:30:52.989Z,17.47
2023-04-16T10:33:25.868Z,17.23
2023-04-16T10:36:08.356Z,14.87
2023-04-16T10:38:39.757Z,16.37
2023-04-16T10:41:09.561Z,16.67
2023-04-16T10:43:42.803Z,18.10
2023-04-16T10:46:20.754Z,21.37
2023-04-16T10:48:52.303Z,13.93
2023-04-16T10:51:29.769Z,18.37
2023-04-16T10:53:59.763Z,20.50
2023-04-16T10:56:29.186Z,18.20
2023-04-16T10:58:57.942Z,16.53
2023-04-16T11:01:34.316Z,17.83
2023-04-16T11:04:31.910Z,19.03
2023-04-16T11:07:08.706Z,19.40
2023-04-16T11:09:48.423Z,16.07
2023-04-16T11:12:18.850Z,20.63
2023-04-16T11:14:52.785Z,17.83
2023-04-16T11:17:22.426Z,18.27
2023-04-16T11:19:53.679Z,19.20
2023-04-16T11:22:22.542Z,17.80
2023-04-16T11:24:57.240Z,18.93
2023-04-16T11:27:26.744Z,13.97
2023-04-16T11:30:04.537Z,18.77
2023-04-16T11:32:34.640Z,16.40
2023-04-16T11:35:06.363Z,19.27
2023-04-16T11:37:35.846Z,17.17
2023-04-16T11:40:06.940Z,14.10
2023-04-16T11:42:37.546Z,20.90
2023-04-16T11:45:07.001Z,16.60
2023-04-16T11:47:48.001Z,14.30
2023-04-16T11:50:23.529Z,14.60
2023-04-16T11:52:53.340Z,14.87
2023-04-16T11:55:22.767Z,15.00
2023-04-16T11:57:52.882Z,14.37
2023-04-16T12:00:24.870Z,18.07
2023-04-16T12:02:54.938Z,20.87
2023-04-16T12:05:34.055Z,21.53
2023-04-16T12:08:06.011Z,20.07
2023-04-16T12:10:36.589Z,22.40
2023-04-16T12:13:14.875Z,22.90
2023-04-16T12:15:48.418Z,19.93
2023-04-16T12:18:17.790Z,21.00
2023-04-16T12:20:48.395Z,20.23
2023-04-16T12:23:27.979Z,18.20
2023-04-16T12:26:00.041Z,19.17
2023-04-16T12:28:31.427Z,19.57
2023-04-16T12:31:00.922Z,19.70
2023-04-16T12:33:29.609Z,22.17
2023-04-16T12:36:00.280Z,22.90
2023-04-16T12:38:30.161Z,21.70
2023-04-16T12:40:58.878Z,23.83
2023-04-16T12:43:27.885Z,23.53
2023-04-16T12:45:56.742Z,21.97
2023-04-16T12:48:25.762Z,23.83
2023-04-16T12:50:56.213Z,21.60
2023-04-16T12:53:26.238Z,18.47
2023-04-16T12:55:54.643Z,20.97
2023-04-16T12:58:23.713Z,21.03
2023-04-16T13:00:52.512Z,20.73
2023-04-16T13:03:22.150Z,21.03
2023-04-16T13:05:50.798Z,22.47
2023-04-16T13:08:19.483Z,22.63
2023-04-16T13:10:49.776Z,22.00
2023-04-16T13:13:19.689Z,20.30
2023-04-16T13:15:48.161Z,19.23
2023-04-16T13:18:16.710Z,20.17
2023-04-16T13:20:45.862Z,20.50
2023-04-16T13:23:14.575Z,19.13
2023-04-16T13:25:42.982Z,19.87
2023-04-16T13:28:13.077Z,20.77
2023-04-16T13:30:41.957Z,21.67
2023-04-16T13:33:10.738Z,22.73
2023-04-16T13:35:39.314Z,21.63
2023-04-16T13:38:07.868Z,21.13
2023-04-16T13:40:36.750Z,19.23
2023-04-16T13:43:07.243Z,20.33
2023-04-16T13:45:39.561Z,20.30
2023-04-16T13:48:08.100Z,15.37
2023-04-16T13:50:36.924Z,13.87
2023-04-16T13:53:06.587Z,12.50
2023-04-16T13:55:36.051Z,12.13
2023-04-16T13:58:05.017Z,13.00
2023-04-16T14:00:33.589Z,14.07
2023-04-16T14:03:06.316Z,12.10
2023-04-16T14:05:35.123Z,14.93
2023-04-16T14:08:03.999Z,14.23
2023-04-16T14:10:33.081Z,15.87
2023-04-16T14:13:01.738Z,16.37
2023-04-16T14:15:30.817Z,13.63
2023-04-16T14:17:59.399Z,13.47
2023-04-16T14:20:29.643Z,15.33
2023-04-16T14:22:58.753Z,15.60
2023-04-16T14:25:27.679Z,16.23
2023-04-16T14:27:56.446Z,14.93
2023-04-16T14:30:25.200Z,13.37
2023-04-16T14:32:54.122Z,14.50
2023-04-16T14:35:22.878Z,14.87
2023-04-16T14:37:53.313Z,16.87
2023-04-16T14:40:22.240Z,13.60
2023-04-16T14:42:51.182Z,18.67
2023-04-16T14:45:20.579Z,15.70
2023-04-16T14:47:50.435Z,19.53
2023-04-16T14:50:18.937Z,15.37
2023-04-16T14:52:47.276Z,16.77
2023-04-16T14:55:17.352Z,16.47
2023-04-16T14:57:45.880Z,14.90
2023-04-16T15:00:19.026Z,14.43
2023-04-16T15:02:48.476Z,16.60
2023-04-16T15:05:17.619Z,16.57
2023-04-16T15:07:46.326Z,16.60
2023-04-16T15:10:16.659Z,13.70
2023-04-16T15:12:46.539Z,16.27
2023-04-16T15:15:15.361Z,14.47
2023-04-16T15:17:46.015Z,15.87
2023-04-16T15:20:15.230Z,17.27
2023-04-16T15:22:43.740Z,14.90
2023-04-16T15:25:12.197Z,15.53
2023-04-16T15:27:43.985Z,15.33
2023-04-16T15:30:14.595Z,14.80
2023-04-16T15:32:43.428Z,16.77
2023-04-16T15:35:12.367Z,16.27
2023-04-16T15:37:41.007Z,17.73
2023-04-16T15:40:10.809Z,18.53
2023-04-16T15:42:39.704Z,17.03
2023-04-16T15:45:10.225Z,16.97
2023-04-16T15:47:41.514Z,18.97
2023-04-16T15:50:11.999Z,17.23
2023-04-16T15:52:41.560Z,18.40
2023-04-16T15:55:11.140Z,16.73
2023-04-16T15:57:39.956Z,21.67
2023-04-16T16:00:15.088Z,16.40
2023-04-16T16:02:44.891Z,15.37
2023-04-16T16:05:14.853Z,22.43
2023-04-16T16:07:44.061Z,19.23
2023-04-16T16:10:13.850Z,16.87
2023-04-16T16:12:42.935Z,15.50
2023-04-16T16:15:13.777Z,14.70
2023-04-16T16:17:42.450Z,17.77
2023-04-16T16:20:12.966Z,15.43
2023-04-16T16:22:43.318Z,15.43
2023-04-16T16:25:11.969Z,14.53
2023-04-16T16:27:42.429Z,18.03
2023-04-16T16:30:15.588Z,14.43
2023-04-16T16:32:44.750Z,14.30
2023-04-16T16:35:14.091Z,11.80
2023-04-16T16:37:42.964Z,17.13
2023-04-16T16:40:12.287Z,16.70
2023-04-16T16:42:40.947Z,16.67
2023-04-16T16:45:11.696Z,16.20
2023-04-16T16:47:41.756Z,17.60
2023-04-16T16:50:11.591Z,14.50
2023-04-16T16:52:40.449Z,17.13
2023-04-16T16:55:11.312Z,17.13
2023-04-16T16:57:40.116Z,15.63
2023-04-16T17:00:16.332Z,13.83
2023-04-16T17:02:46.986Z,14.63
2023-04-16T17:05:15.796Z,14.80
2023-04-16T17:07:44.571Z,14.37
2023-04-16T17:10:22.087Z,16.10
2023-04-16T17:12:52.121Z,18.10
2023-04-16T17:15:21.864Z,14.63
2023-04-16T17:17:51.990Z,18.60
2023-04-16T17:20:21.630Z,15.20
2023-04-16T17:22:51.283Z,16.93
2023-04-16T17:25:20.207Z,15.07
2023-04-16T17:27:48.903Z,19.50
2023-04-16T17:30:17.990Z,17.13
2023-04-16T17:32:46.566Z,17.10
2023-04-16T17:35:16.804Z,17.53
2023-04-16T17:37:45.554Z,15.50
2023-04-16T17:40:15.803Z,16.53
2023-04-16T17:42:44.419Z,19.60
2023-04-16T17:45:14.192Z,16.73
2023-04-16T17:47:44.705Z,16.53
2023-04-16T17:50:13.999Z,16.03
2023-04-16T17:52:44.847Z,18.03
2023-04-16T17:55:13.653Z,17.27
2023-04-16T17:57:42.350Z,15.70
2023-04-16T18:00:12.597Z,15.23
2023-04-16T18:02:42.345Z,17.10
2023-04-16T18:05:11.743Z,18.40
2023-04-16T18:07:40.815Z,16.87
2023-04-16T18:10:12.806Z,15.97
2023-04-16T18:12:41.916Z,15.37
2023-04-16T18:15:11.767Z,16.20
2023-04-16T18:17:40.601Z,16.57
2023-04-16T18:20:12.040Z,17.30
2023-04-16T18:22:40.623Z,16.50
2023-04-16T18:25:12.098Z,16.30
2023-04-16T18:27:41.326Z,16.13
2023-04-16T18:30:19.976Z,17.03
2023-04-16T18:33:25.462Z,17.83
2023-04-16T18:35:45.758Z,15.43
2023-04-16T18:38:23.010Z,17.93
2023-04-16T18:40:53.124Z,16.07
2023-04-16T18:43:21.746Z,16.43
2023-04-16T18:45:50.557Z,15.60
2023-04-16T18:48:19.664Z,15.27
2023-04-16T18:50:48.778Z,16.97
2023-04-16T18:53:17.836Z,16.47
2023-04-16T18:55:47.306Z,16.07
2023-04-16T18:58:17.476Z,17.57
2023-04-16T19:00:46.944Z,16.33
2023-04-16T19:03:17.149Z,16.90
2023-04-16T19:05:45.988Z,17.83
2023-04-16T19:08:14.799Z,17.97
2023-04-16T19:10:43.285Z,18.63
2023-04-16T19:13:14.258Z,17.80
2023-04-16T19:15:44.442Z,19.73
2023-04-16T19:18:13.022Z,20.60
2023-04-16T19:20:41.649Z,18.13
2023-04-16T19:23:13.433Z,20.10
2023-04-16T19:25:42.393Z,17.47
2023-04-16T19:28:10.961Z,16.23
2023-04-16T19:30:40.506Z,15.23
2023-04-16T19:33:10.814Z,14.60
2023-04-16T19:35:41.725Z,13.97
2023-04-16T19:38:11.011Z,13.27
2023-04-16T19:40:40.410Z,15.40
2023-04-16T19:43:09.039Z,14.43
2023-04-16T19:45:37.763Z,15.93
2023-04-16T19:48:06.485Z,15.37
2023-04-16T19:50:36.807Z,15.53
2023-04-16T19:53:05.802Z,15.43
2023-04-16T19:55:34.296Z,15.30
2023-04-16T19:58:06.558Z,15.77
2023-04-16T20:00:35.691Z,18.07
2023-04-16T20:03:04.577Z,16.73
2023-04-16T20:05:33.218Z,15.10
2023-04-16T20:08:14.880Z,15.23
2023-04-16T20:10:43.733Z,18.27
2023-04-16T20:13:13.808Z,15.60
2023-04-16T20:15:42.932Z,15.33
2023-04-16T20:18:12.966Z,19.13
2023-04-16T20:20:41.933Z,16.50
2023-04-16T20:23:12.080Z,18.17
2023-04-16T20:25:43.167Z,15.90
2023-04-16T20:28:11.985Z,16.70
2023-04-16T20:30:40.910Z,18.43
2023-04-16T20:33:10.247Z,18.63
2023-04-16T20:35:38.842Z,20.63
2023-04-16T20:38:07.585Z,18.33
2023-04-16T20:40:39.163Z,16.37
2023-04-16T20:43:10.526Z,16.53
2023-04-16T20:45:41.098Z,17.83
2023-04-16T20:48:09.924Z,20.93
2023-04-16T20:50:39.928Z,18.67
2023-04-16T20:53:08.440Z,18.43
2023-04-16T20:55:38.454Z,18.50
2023-04-16T20:58:07.085Z,19.17
2023-04-16T21:00:36.441Z,19.57
2023-04-16T21:03:05.280Z,19.33
2023-04-16T21:05:34.303Z,21.23
2023-04-16T21:08:03.496Z,20.13
2023-04-16T21:10:32.011Z,22.23
2023-04-16T21:13:02.261Z,18.67
2023-04-16T21:15:30.731Z,20.30
2023-04-16T21:17:59.179Z,20.43
2023-04-16T21:20:30.372Z,19.20
2023-04-16T21:23:00.092Z,20.13
2023-04-16T21:25:29.347Z,19.37
2023-04-16T21:27:58.236Z,19.20
2023-04-16T21:30:28.423Z,18.93
2023-04-16T21:32:57.669Z,18.23
2023-04-16T21:35:26.469Z,20.07
2023-04-16T21:37:55.461Z,18.97
2023-04-16T21:40:24.222Z,21.23
2023-04-16T21:42:52.745Z,23.17
2023-04-16T21:45:21.648Z,21.20
2023-04-16T21:47:52.217Z,18.60
2023-04-16T21:50:21.312Z,22.03
2023-04-16T21:52:50.152Z,20.20
2023-04-16T21:55:18.868Z,19.10
2023-04-16T21:57:47.369Z,21.77
2023-04-16T22:00:17.666Z,21.47
2023-04-16T22:02:46.692Z,19.10
2023-04-16T22:05:17.700Z,23.53
2023-04-16T22:07:46.414Z,21.93
2023-04-16T22:10:15.625Z,23.80
2023-04-16T22:12:45.136Z,24.23
2023-04-16T22:15:14.891Z,27.47
2023-04-16T22:17:43.707Z,24.90
2023-04-16T22:20:13.604Z,28.07
2023-04-16T22:22:44.760Z,26.10
2023-04-16T22:25:14.085Z,26.93
2023-04-16T22:27:42.891Z,28.00
2023-04-16T22:30:12.301Z,30.60
2023-04-16T22:32:40.755Z,29.17
2023-04-16T22:35:10.311Z,27.90
2023-04-16T22:37:39.082Z,29.67
2023-04-16T22:40:13.753Z,26.20
2023-04-16T22:42:42.701Z,30.50
2023-04-16T22:45:12.863Z,29.27
2023-04-16T22:47:41.759Z,26.23
2023-04-16T22:50:12.141Z,32.50
2023-04-16T22:52:40.589Z,28.43
2023-04-16T22:55:11.152Z,28.17
2023-04-16T22:57:40.280Z,28.47
2023-04-16T23:00:15.572Z,28.07
2023-04-16T23:02:45.048Z,29.37
2023-04-16T23:05:14.201Z,29.20
2023-04-16T23:07:43.148Z,26.93
2023-04-16T23:10:13.801Z,30.50
2023-04-16T23:12:42.883Z,31.83
2023-04-16T23:15:11.973Z,28.07
2023-04-16T23:17:40.549Z,33.60
2023-04-16T23:20:10.453Z,30.70
2023-04-16T23:22:38.986Z,34.30
2023-04-16T23:25:08.844Z,32.23
2023-04-16T23:27:39.163Z,31.63
2023-04-16T23:30:08.826Z,29.17
2023-04-16T23:32:37.702Z,30.67
2023-04-16T23:35:06.728Z,35.00
2023-04-16T23:37:35.718Z,29.20
2023-04-16T23:40:05.041Z,30.20
2023-04-16T23:42:33.533Z,33.17
2023-04-16T23:45:04.529Z,30.37
2023-04-16T23:47:33.350Z,31.70
2023-04-16T23:50:02.282Z,29.10
2023-04-16T23:52:30.962Z,29.77
2023-04-16T23:54:59.902Z,31.17
2023-04-16T23:57:28.304Z,33.10
2023-04-16T23:59:56.898Z,31.23
